createdAt,value
2018-05-31T00:00:52.864Z,14.88
2018-05-31T00:01:52.855Z,14.81
2018-05-31T00:02:52.851Z,14.87
2018-05-31T00:03:52.849Z,14.88
2018-05-31T00:04:52.843Z,14.87
2018-05-31T00:05:52.842Z,14.81
2018-05-31T00:06:52.837Z,14.90
2018-05-31T00:07:52.833Z,14.87
2018-05-31T00:08:52.831Z,14.84
2018-05-31T00:09:52.824Z,14.75
2018-05-31T00:10:52.819Z,14.81
2018-05-31T00:11:52.816Z,14.81
2018-05-31T00:12:52.815Z,14.78
2018-05-31T00:13:52.809Z,14.78
2018-05-31T00:14:52.803Z,14.84
2018-05-31T00:15:52.800Z,14.88
2018-05-31T00:16:52.794Z,14.88
2018-05-31T00:17:52.791Z,14.90
2018-05-31T00:18:52.789Z,14.91
2018-05-31T00:19:52.782Z,15.02
2018-05-31T00:20:52.780Z,15.06
2018-05-31T00:21:52.776Z,14.98
2018-05-31T00:22:52.774Z,14.99
2018-05-31T00:23:52.766Z,15.06
2018-05-31T00:24:52.767Z,15.06
2018-05-31T00:25:52.760Z,14.99
2018-05-31T00:26:52.757Z,15.03
2018-05-31T00:27:52.756Z,15.03
2018-05-31T00:28:52.749Z,15.09
2018-05-31T00:29:52.742Z,15.05
2018-05-31T00:30:52.749Z,14.94
2018-05-31T00:31:52.742Z,14.95
2018-05-31T00:32:52.732Z,14.98
2018-05-31T00:33:52.730Z,14.90
2018-05-31T00:34:52.726Z,14.94
2018-05-31T00:35:52.725Z,14.94
2018-05-31T00:36:52.719Z,14.93
2018-05-31T00:37:52.712Z,14.95
2018-05-31T00:38:52.705Z,14.99
2018-05-31T00:39:52.711Z,14.99
2018-05-31T00:40:52.704Z,14.94
2018-05-31T00:41:52.700Z,15.08
2018-05-31T00:42:52.694Z,15.13
2018-05-31T00:43:52.709Z,15.06
2018-05-31T00:44:52.691Z,15.11
2018-05-31T00:45:52.722Z,15.09
2018-05-31T00:46:52.677Z,15.06
2018-05-31T00:47:52.675Z,15.06
2018-05-31T00:48:52.674Z,15.06
2018-05-31T00:49:52.668Z,15.02
2018-05-31T00:50:52.664Z,15.06
2018-05-31T00:51:52.660Z,14.94
2018-05-31T00:52:52.657Z,14.93
2018-05-31T00:53:52.649Z,14.90
2018-05-31T00:54:52.652Z,15.05
2018-05-31T00:55:52.643Z,14.99
2018-05-31T00:56:52.644Z,15.02
2018-05-31T00:57:52.633Z,14.93
2018-05-31T00:58:52.648Z,14.84
2018-05-31T00:59:52.629Z,14.80
2018-05-31T01:00:52.625Z,14.78
2018-05-31T01:01:52.620Z,14.65
2018-05-31T01:02:52.615Z,14.64
2018-05-31T01:03:52.616Z,14.54
2018-05-31T01:04:52.621Z,14.61
2018-05-31T01:05:52.607Z,14.67
2018-05-31T01:06:52.603Z,14.67
2018-05-31T01:07:52.597Z,14.67
2018-05-31T01:08:52.591Z,14.69
2018-05-31T01:09:52.581Z,14.69
2018-05-31T01:10:52.584Z,14.72
2018-05-31T01:11:52.619Z,14.68
2018-05-31T01:12:52.576Z,14.72
2018-05-31T01:13:52.572Z,14.72
2018-05-31T01:14:52.567Z,14.71
2018-05-31T01:15:52.566Z,14.68
2018-05-31T01:16:52.585Z,14.61
2018-05-31T01:17:52.602Z,14.52
2018-05-31T01:18:52.549Z,14.44
2018-05-31T01:19:52.550Z,14.43
2018-05-31T01:20:52.544Z,14.27
2018-05-31T01:21:52.544Z,14.28
2018-05-31T01:22:52.538Z,14.25
2018-05-31T01:23:52.541Z,14.34
2018-05-31T01:24:52.535Z,14.25
2018-05-31T01:25:52.527Z,14.20
2018-05-31T01:26:52.590Z,14.27
2018-05-31T01:27:52.519Z,14.10
2018-05-31T01:28:52.514Z,14.12
2018-05-31T01:29:52.512Z,13.99
2018-05-31T01:30:52.504Z,14.09
2018-05-31T02:02:51.044Z,13.63
2018-05-31T02:03:51.011Z,13.69
2018-05-31T02:04:50.997Z,13.74
2018-05-31T02:05:50.994Z,13.61
2018-05-31T02:06:50.985Z,13.59
2018-05-31T02:07:50.968Z,13.63
2018-05-31T02:08:50.965Z,13.54
2018-05-31T02:09:50.954Z,13.46
2018-05-31T02:10:50.948Z,13.46
2018-05-31T02:11:50.938Z,13.56
2018-05-31T02:12:50.930Z,13.52
2018-05-31T02:13:50.929Z,13.43
2018-05-31T02:14:50.918Z,13.44
2018-05-31T02:15:50.912Z,13.44
2018-05-31T02:16:50.910Z,13.41
2018-05-31T02:17:50.910Z,13.43
2018-05-31T02:18:50.899Z,13.43
2018-05-31T02:19:50.893Z,13.36
2018-05-31T02:20:50.891Z,13.41
2018-05-31T02:21:50.887Z,13.41
2018-05-31T02:22:50.879Z,13.47
2018-05-31T02:23:50.872Z,13.47
2018-05-31T02:24:50.871Z,13.58
2018-05-31T02:25:50.863Z,13.61
2018-05-31T02:26:50.864Z,13.61
2018-05-31T02:27:50.856Z,13.62
2018-05-31T02:28:50.854Z,13.59
2018-05-31T02:29:50.846Z,13.62
2018-05-31T02:30:50.839Z,13.59
2018-05-31T02:31:50.836Z,13.70
2018-05-31T02:32:50.833Z,13.61
2018-05-31T02:33:50.831Z,13.65
2018-05-31T02:34:50.825Z,13.69
2018-05-31T02:35:50.814Z,13.79
2018-05-31T02:36:50.815Z,13.70
2018-05-31T02:37:50.810Z,13.70
2018-05-31T02:38:50.809Z,13.62
2018-05-31T02:39:50.795Z,13.51
2018-05-31T02:40:50.799Z,13.47
2018-05-31T02:41:50.792Z,13.46
2018-05-31T02:42:50.793Z,13.44
2018-05-31T02:43:50.782Z,13.43
2018-05-31T02:44:50.785Z,13.51
2018-05-31T02:45:50.778Z,13.52
2018-05-31T02:46:50.777Z,13.44
2018-05-31T02:47:50.772Z,13.52
2018-05-31T02:48:50.765Z,13.58
2018-05-31T02:49:50.762Z,13.58
2018-05-31T02:50:50.759Z,13.58
2018-05-31T02:51:50.753Z,13.56
2018-05-31T02:52:50.745Z,13.55
2018-05-31T02:53:50.744Z,13.58
2018-05-31T02:54:50.740Z,13.47
2018-05-31T02:55:50.736Z,13.52
2018-05-31T02:56:50.729Z,13.56
2018-05-31T02:57:50.722Z,13.58
2018-05-31T02:58:50.725Z,13.58
2018-05-31T02:59:50.731Z,13.71
2018-05-31T03:00:50.717Z,13.73
2018-05-31T03:01:50.716Z,13.74
2018-05-31T03:02:50.708Z,13.89
2018-05-31T03:03:50.708Z,13.92
2018-05-31T03:04:50.701Z,13.96
2018-05-31T03:05:50.706Z,13.98
2018-05-31T03:06:50.688Z,14.13
2018-05-31T03:07:50.717Z,14.09
2018-05-31T03:08:50.686Z,14.07
2018-05-31T03:09:50.670Z,14.16
2018-05-31T03:10:50.676Z,14.10
2018-05-31T03:11:50.666Z,14.06
2018-05-31T03:12:50.672Z,14.07
2018-05-31T03:13:50.662Z,14.02
2018-05-31T03:14:50.659Z,14.06
2018-05-31T03:15:50.656Z,14.01
2018-05-31T03:16:50.656Z,13.92
2018-05-31T03:17:50.653Z,13.94
2018-05-31T03:18:50.647Z,13.88
2018-05-31T03:19:50.642Z,13.83
2018-05-31T03:20:50.729Z,13.83
2018-05-31T03:21:50.634Z,13.77
2018-05-31T03:22:50.632Z,13.91
2018-05-31T03:23:50.621Z,13.88
2018-05-31T03:24:50.621Z,13.96
2018-05-31T03:25:50.617Z,13.84
2018-05-31T03:26:50.614Z,13.79
2018-05-31T03:27:50.609Z,13.79
2018-05-31T03:28:50.610Z,13.81
2018-05-31T03:29:50.604Z,13.73
2018-05-31T03:30:50.596Z,13.79
2018-05-31T03:31:50.601Z,13.73
2018-05-31T03:32:50.590Z,13.83
2018-05-31T03:33:50.585Z,13.67
2018-05-31T03:34:50.583Z,13.71
2018-05-31T03:35:50.577Z,13.63
2018-05-31T03:36:50.577Z,13.63
2018-05-31T03:37:50.574Z,13.61
2018-05-31T03:38:50.569Z,13.56
2018-05-31T03:39:50.562Z,13.44
2018-05-31T03:40:50.566Z,13.54
2018-05-31T03:41:50.552Z,13.55
2018-05-31T03:42:50.550Z,13.55
2018-05-31T03:43:50.542Z,13.55
2018-05-31T03:44:50.539Z,13.46
2018-05-31T03:45:50.538Z,13.41
2018-05-31T03:46:50.533Z,13.40
2018-05-31T03:47:50.524Z,13.47
2018-05-31T03:48:50.546Z,13.61
2018-05-31T03:49:50.522Z,13.55
2018-05-31T03:50:50.522Z,13.61
2018-05-31T03:51:50.523Z,13.63
2018-05-31T03:52:50.514Z,13.61
2018-05-31T03:53:50.512Z,13.58
2018-05-31T03:54:50.505Z,13.59
2018-05-31T03:55:50.505Z,13.62
2018-05-31T03:56:50.493Z,13.73
2018-05-31T03:57:50.493Z,13.62
2018-05-31T03:58:50.490Z,13.59
2018-05-31T03:59:50.484Z,13.70
2018-05-31T04:00:50.485Z,13.61
2018-05-31T04:01:50.479Z,13.58
2018-05-31T04:02:50.475Z,13.69
2018-05-31T04:03:50.480Z,13.79
2018-05-31T04:04:50.461Z,13.70
2018-05-31T04:05:50.459Z,13.71
2018-05-31T04:06:50.462Z,13.84
2018-05-31T04:07:50.443Z,13.76
2018-05-31T04:08:50.455Z,13.77
2018-05-31T04:09:50.445Z,13.67
2018-05-31T04:10:50.444Z,13.63
2018-05-31T04:11:50.442Z,13.62
2018-05-31T04:12:50.434Z,13.69
2018-05-31T04:13:50.431Z,13.67
2018-05-31T04:14:50.425Z,13.70
2018-05-31T04:15:50.433Z,13.73
2018-05-31T04:16:50.418Z,13.77
2018-05-31T04:17:50.412Z,13.81
2018-05-31T04:18:50.408Z,13.88
2018-05-31T04:19:50.407Z,13.95
2018-05-31T04:20:50.399Z,13.98
2018-05-31T04:21:50.403Z,14.19
2018-05-31T04:22:50.392Z,14.17
2018-05-31T04:23:50.393Z,14.32
2018-05-31T04:24:50.384Z,14.49
2018-05-31T04:25:50.386Z,14.56
2018-05-31T04:26:50.378Z,14.62
2018-05-31T04:27:50.375Z,14.65
2018-05-31T04:28:50.371Z,14.78
2018-05-31T04:29:50.366Z,14.78
2018-05-31T04:30:50.367Z,14.62
2018-05-31T04:31:50.359Z,14.78
2018-05-31T04:32:50.359Z,14.83
2018-05-31T04:33:50.352Z,14.93
2018-05-31T04:34:50.352Z,14.95
2018-05-31T04:35:50.350Z,14.91
2018-05-31T04:36:50.348Z,14.94
2018-05-31T04:37:50.341Z,14.95
2018-05-31T04:38:50.344Z,14.99
2018-05-31T04:39:50.327Z,15.08
2018-05-31T04:40:50.330Z,15.03
2018-05-31T04:41:50.327Z,15.02
2018-05-31T04:42:50.327Z,15.11
2018-05-31T04:43:50.321Z,15.08
2018-05-31T04:44:50.320Z,15.19
2018-05-31T04:45:50.316Z,15.20
2018-05-31T04:46:50.306Z,15.13
2018-05-31T04:47:50.310Z,15.12
2018-05-31T04:48:50.318Z,15.05
2018-05-31T04:49:50.305Z,14.98
2018-05-31T04:50:50.302Z,15.05
2018-05-31T04:51:50.299Z,15.09
2018-05-31T04:52:50.293Z,15.15
2018-05-31T04:53:50.290Z,15.23
2018-05-31T04:54:50.290Z,14.99
2018-05-31T04:55:50.288Z,15.03
2018-05-31T04:56:50.286Z,15.03
2018-05-31T04:57:50.280Z,15.01
2018-05-31T04:58:50.277Z,15.03
2018-05-31T04:59:50.281Z,15.20
2018-05-31T05:00:50.271Z,15.30
2018-05-31T05:01:50.275Z,15.30
2018-05-31T05:02:50.263Z,15.46
2018-05-31T05:03:50.268Z,15.60
2018-05-31T05:04:50.264Z,15.61
2018-05-31T05:05:50.254Z,15.78
2018-05-31T05:06:50.252Z,15.79
2018-05-31T05:07:50.253Z,15.96
2018-05-31T05:08:50.244Z,15.99
2018-05-31T05:09:50.245Z,16.04
2018-05-31T05:10:50.242Z,16.11
2018-05-31T05:11:50.238Z,16.11
2018-05-31T05:12:50.236Z,16.12
2018-05-31T05:13:50.231Z,16.11
2018-05-31T05:14:50.233Z,16.11
2018-05-31T05:15:50.230Z,16.14
2018-05-31T05:16:50.228Z,16.20
2018-05-31T05:17:50.226Z,16.06
2018-05-31T05:18:50.223Z,16.06
2018-05-31T05:19:50.222Z,16.12
2018-05-31T05:20:50.215Z,16.18
2018-05-31T05:21:50.216Z,16.20
2018-05-31T05:22:50.216Z,16.40
2018-05-31T05:23:50.206Z,16.42
2018-05-31T05:24:50.206Z,16.55
2018-05-31T05:25:50.203Z,16.52
2018-05-31T05:26:50.206Z,16.41
2018-05-31T05:27:50.199Z,16.45
2018-05-31T05:28:50.203Z,16.55
2018-05-31T05:29:50.198Z,16.63
2018-05-31T05:30:50.194Z,16.70
2018-05-31T05:31:50.190Z,16.70
2018-05-31T05:32:50.192Z,16.70
2018-05-31T05:33:50.199Z,16.71
2018-05-31T05:34:50.186Z,16.71
2018-05-31T05:35:50.222Z,16.67
2018-05-31T05:36:50.179Z,16.58
2018-05-31T05:37:50.179Z,16.53
2018-05-31T05:38:50.176Z,16.78
2018-05-31T05:39:50.173Z,16.99
2018-05-31T05:40:50.173Z,16.83
2018-05-31T05:41:50.164Z,16.96
2018-05-31T05:42:50.166Z,17.15
2018-05-31T05:43:50.167Z,17.29
2018-05-31T05:44:50.168Z,17.48
2018-05-31T05:45:50.162Z,17.69
2018-05-31T05:46:50.162Z,17.70
2018-05-31T05:47:50.156Z,17.69
2018-05-31T05:48:50.153Z,17.85
2018-05-31T05:49:50.164Z,18.03
2018-05-31T05:50:50.157Z,18.15
2018-05-31T05:51:50.157Z,18.12
2018-05-31T05:52:50.159Z,18.39
2018-05-31T05:53:50.149Z,18.39
2018-05-31T05:54:50.148Z,18.17
2018-05-31T05:55:50.149Z,18.06
2018-05-31T05:56:50.148Z,18.24
2018-05-31T05:57:50.145Z,18.43
2018-05-31T05:58:50.144Z,18.65
2018-05-31T05:59:50.147Z,18.76
2018-05-31T06:00:50.144Z,18.61
2018-05-31T06:01:50.187Z,18.42
2018-05-31T06:02:50.144Z,18.21
2018-05-31T06:03:50.145Z,18.34
2018-05-31T06:04:50.138Z,18.37
2018-05-31T06:05:50.147Z,18.40
2018-05-31T06:06:50.143Z,18.43
2018-05-31T06:07:50.141Z,18.29
2018-05-31T06:08:50.147Z,18.13
2018-05-31T06:09:50.148Z,18.19
2018-05-31T06:10:50.139Z,18.06
2018-05-31T06:11:50.144Z,18.22
2018-05-31T06:12:50.148Z,18.50
2018-05-31T06:13:50.185Z,18.74
2018-05-31T06:14:50.145Z,18.76
2018-05-31T06:15:50.143Z,18.70
2018-05-31T06:16:50.145Z,18.72
2018-05-31T06:17:50.144Z,18.73
2018-05-31T06:18:50.171Z,18.76
2018-05-31T06:19:50.165Z,18.52
2018-05-31T06:20:50.144Z,18.58
2018-05-31T06:21:50.145Z,18.91
2018-05-31T06:22:50.148Z,19.33
2018-05-31T06:23:50.149Z,19.39
2018-05-31T06:24:50.152Z,19.72
2018-05-31T06:25:50.150Z,19.60
2018-05-31T06:26:50.151Z,19.53
2018-05-31T06:27:50.153Z,19.84
2018-05-31T06:28:50.156Z,20.53
2018-05-31T06:29:50.159Z,20.76
2018-05-31T06:30:50.162Z,20.38
2018-05-31T06:31:50.156Z,20.59
2018-05-31T06:32:50.166Z,20.68
2018-05-31T06:33:50.172Z,20.90
2018-05-31T06:34:50.170Z,20.79
2018-05-31T06:35:50.165Z,20.56
2018-05-31T06:36:50.171Z,20.49
2018-05-31T06:37:50.175Z,20.39
2018-05-31T06:38:50.180Z,20.38
2018-05-31T06:39:50.183Z,20.95
2018-05-31T06:40:50.185Z,20.95
2018-05-31T06:41:50.189Z,21.13
2018-05-31T06:42:50.195Z,21.21
2018-05-31T06:43:50.188Z,21.23
2018-05-31T06:44:50.200Z,21.30
2018-05-31T06:45:50.244Z,21.46
2018-05-31T06:46:50.203Z,21.60
2018-05-31T06:47:50.199Z,21.98
2018-05-31T06:48:50.204Z,21.71
2018-05-31T06:49:50.207Z,21.82
2018-05-31T06:50:50.213Z,22.10
2018-05-31T06:51:50.214Z,21.51
2018-05-31T06:52:50.217Z,21.81
2018-05-31T06:53:50.222Z,21.32
2018-05-31T06:54:50.229Z,21.63
2018-05-31T06:55:50.231Z,22.32
2018-05-31T06:56:50.234Z,22.53
2018-05-31T06:57:50.240Z,22.86
2018-05-31T06:58:50.248Z,23.07
2018-05-31T06:59:50.250Z,22.99
2018-05-31T07:00:50.297Z,23.02
2018-05-31T07:01:50.261Z,22.74
2018-05-31T07:02:50.261Z,23.01
2018-05-31T07:03:50.267Z,22.65
2018-05-31T07:04:50.275Z,22.52
2018-05-31T07:05:50.275Z,22.31
2018-05-31T07:06:50.304Z,22.46
2018-05-31T07:07:50.290Z,22.72
2018-05-31T07:08:50.295Z,22.83
2018-05-31T07:09:50.296Z,22.96
2018-05-31T07:10:50.299Z,22.83
2018-05-31T07:11:50.306Z,22.82
2018-05-31T07:12:50.313Z,22.78
2018-05-31T07:13:50.315Z,22.83
2018-05-31T07:14:50.322Z,22.71
2018-05-31T07:15:50.348Z,22.77
2018-05-31T07:16:50.332Z,22.77
2018-05-31T07:17:50.343Z,23.01
2018-05-31T07:18:50.342Z,22.64
2018-05-31T07:19:50.349Z,23.23
2018-05-31T07:20:50.354Z,24.12
2018-05-31T07:21:50.415Z,24.26
2018-05-31T07:22:50.368Z,24.12
2018-05-31T07:23:50.374Z,23.92
2018-05-31T07:24:50.382Z,24.04
2018-05-31T07:25:50.389Z,23.61
2018-05-31T07:26:50.397Z,25.02
2018-05-31T07:27:50.400Z,25.56
2018-05-31T07:28:50.411Z,24.37
2018-05-31T07:29:50.416Z,24.42
2018-05-31T07:30:50.429Z,24.02
2018-05-31T07:31:50.431Z,24.35
2018-05-31T07:32:50.448Z,24.79
2018-05-31T07:33:50.460Z,25.49
2018-05-31T07:34:50.459Z,25.05
2018-05-31T07:35:50.471Z,24.69
2018-05-31T07:36:50.478Z,24.76
2018-05-31T07:37:50.514Z,24.98
2018-05-31T07:38:50.519Z,25.16
2018-05-31T07:39:50.515Z,26.04
2018-05-31T07:40:50.522Z,25.86
2018-05-31T07:41:50.542Z,24.88
2018-05-31T07:42:50.561Z,25.06
2018-05-31T07:43:50.561Z,24.56
2018-05-31T07:44:50.565Z,24.60
2018-05-31T07:45:50.574Z,23.87
2018-05-31T07:46:50.585Z,24.10
2018-05-31T07:47:50.600Z,24.50
2018-05-31T07:48:50.609Z,25.10
2018-05-31T07:49:50.626Z,25.52
2018-05-31T07:50:50.626Z,26.21
2018-05-31T07:51:50.644Z,27.33
2018-05-31T07:52:50.657Z,27.23
2018-05-31T07:53:50.674Z,27.53
2018-05-31T07:54:50.679Z,27.10
2018-05-31T07:55:50.712Z,26.73
2018-05-31T07:56:50.707Z,26.65
2018-05-31T07:57:51.623Z,27.20
2018-05-31T07:58:50.741Z,28.35
2018-05-31T07:59:50.833Z,28.58
2018-05-31T08:00:50.873Z,28.03
2018-05-31T08:01:51.612Z,27.46
2018-05-31T08:02:50.792Z,28.17
2018-05-31T08:03:50.925Z,27.48
2018-05-31T08:04:50.824Z,27.06
2018-05-31T08:05:50.839Z,26.21
2018-05-31T08:06:50.846Z,27.61
2018-05-31T08:07:50.866Z,28.32
2018-05-31T08:08:50.876Z,28.40
2018-05-31T08:09:50.904Z,28.17
2018-05-31T08:10:50.914Z,28.19
2018-05-31T08:11:50.923Z,27.92
2018-05-31T08:12:50.932Z,28.28
2018-05-31T08:13:50.950Z,28.70
2018-05-31T08:14:50.966Z,29.37
2018-05-31T08:15:50.980Z,29.23
2018-05-31T08:16:50.992Z,29.11
2018-05-31T08:17:51.008Z,29.79
2018-05-31T08:18:51.023Z,29.77
2018-05-31T08:19:51.037Z,30.94
2018-05-31T08:20:51.052Z,30.98
2018-05-31T08:21:51.070Z,30.61
2018-05-31T08:22:51.081Z,30.75
2018-05-31T08:23:51.096Z,30.52
2018-05-31T08:24:51.152Z,30.18
2018-05-31T08:25:51.212Z,31.06
2018-05-31T08:26:51.280Z,30.23
2018-05-31T08:27:51.574Z,30.83
2018-05-31T08:28:51.581Z,30.40
2018-05-31T08:29:51.390Z,31.11
2018-05-31T08:30:51.568Z,30.11
2018-05-31T08:31:51.497Z,28.43
2018-05-31T08:32:51.561Z,28.69
2018-05-31T08:33:51.539Z,28.80
2018-05-31T08:34:51.527Z,28.87
2018-05-31T08:35:51.674Z,28.60
2018-05-31T08:36:51.623Z,29.15
2018-05-31T08:37:51.496Z,29.44
2018-05-31T08:38:51.558Z,30.15
2018-05-31T08:39:51.735Z,30.75
2018-05-31T08:40:51.650Z,30.12
2018-05-31T08:41:51.493Z,29.63
2018-05-31T08:42:51.495Z,28.80
2018-05-31T08:43:51.463Z,28.66
2018-05-31T08:44:51.458Z,27.99
2018-05-31T08:45:51.505Z,28.21
2018-05-31T08:46:51.662Z,26.80
2018-05-31T08:47:51.812Z,27.94
2018-05-31T08:48:51.791Z,27.59
2018-05-31T08:49:51.709Z,28.25
2018-05-31T08:50:51.697Z,28.65
2018-05-31T08:51:51.934Z,29.25
2018-05-31T08:52:51.562Z,29.37
2018-05-31T08:53:51.599Z,30.38
2018-05-31T08:54:51.596Z,30.80
2018-05-31T08:55:51.613Z,31.33
2018-05-31T08:56:51.627Z,32.37
2018-05-31T08:57:51.656Z,33.06
2018-05-31T08:58:51.667Z,32.03
2018-05-31T08:59:51.686Z,32.02
2018-05-31T09:00:51.705Z,32.88
2018-05-31T09:01:51.725Z,33.36
2018-05-31T09:02:51.734Z,32.32
2018-05-31T09:03:51.752Z,31.17
2018-05-31T09:04:51.772Z,31.08
2018-05-31T09:05:51.792Z,31.01
2018-05-31T09:06:51.813Z,31.27
2018-05-31T09:07:51.833Z,31.87
2018-05-31T09:08:51.846Z,32.05
2018-05-31T09:09:51.867Z,32.27
2018-05-31T09:10:51.886Z,32.58
2018-05-31T09:11:51.907Z,32.71
2018-05-31T09:12:51.923Z,32.64
2018-05-31T09:13:51.937Z,32.98
2018-05-31T09:14:51.957Z,32.39
2018-05-31T09:15:51.979Z,32.33
2018-05-31T09:16:52.000Z,31.76
2018-05-31T09:17:52.017Z,31.60
2018-05-31T09:18:52.032Z,32.55
2018-05-31T09:19:52.052Z,33.33
2018-05-31T09:20:52.094Z,33.51
2018-05-31T09:21:52.088Z,33.97
2018-05-31T09:22:52.107Z,33.87
2018-05-31T09:23:52.137Z,33.42
2018-05-31T09:24:52.146Z,32.42
2018-05-31T09:25:52.163Z,31.31
2018-05-31T09:26:52.184Z,30.21
2018-05-31T09:27:52.199Z,29.55
2018-05-31T09:28:52.221Z,29.49
2018-05-31T09:29:52.243Z,29.49
2018-05-31T09:30:52.256Z,29.49
2018-05-31T09:31:52.279Z,29.84
2018-05-31T09:32:52.293Z,30.15
2018-05-31T09:33:52.311Z,30.38
2018-05-31T09:34:52.333Z,30.12
2018-05-31T09:35:52.345Z,29.01
2018-05-31T09:36:52.364Z,29.59
2018-05-31T09:37:52.381Z,30.16
2018-05-31T09:38:52.412Z,30.61
2018-05-31T09:39:52.417Z,29.92
2018-05-31T09:40:52.432Z,29.75
2018-05-31T09:41:52.454Z,30.16
2018-05-31T09:42:52.471Z,30.75
2018-05-31T09:43:52.485Z,31.62
2018-05-31T09:44:52.507Z,31.21
2018-05-31T09:45:52.524Z,31.42
2018-05-31T09:46:52.555Z,31.61
2018-05-31T09:47:52.568Z,31.60
2018-05-31T09:48:52.565Z,31.55
2018-05-31T09:49:52.592Z,31.95
2018-05-31T09:50:52.609Z,32.66
2018-05-31T09:51:52.630Z,33.07
2018-05-31T09:52:52.646Z,33.65
2018-05-31T09:53:52.667Z,34.19
2018-05-31T09:54:52.683Z,33.23
2018-05-31T09:55:52.698Z,33.41
2018-05-31T09:56:52.712Z,32.95
2018-05-31T09:57:52.737Z,33.39
2018-05-31T09:58:52.751Z,33.65
2018-05-31T09:59:52.772Z,34.00
2018-05-31T10:00:52.786Z,33.68
2018-05-31T10:01:52.807Z,32.74
2018-05-31T10:02:52.832Z,33.37
2018-05-31T10:03:52.848Z,33.97
2018-05-31T10:04:52.863Z,33.97
2018-05-31T10:05:52.893Z,34.54
2018-05-31T10:06:52.898Z,34.44
2018-05-31T10:07:52.915Z,34.41
2018-05-31T10:08:52.937Z,34.29
2018-05-31T10:09:52.957Z,34.13
2018-05-31T10:10:52.977Z,34.07
2018-05-31T10:11:52.998Z,33.97
2018-05-31T10:12:53.006Z,33.64
2018-05-31T10:13:53.030Z,33.13
2018-05-31T10:14:53.048Z,32.59
2018-05-31T10:15:53.067Z,32.40
2018-05-31T10:16:53.089Z,32.88
2018-05-31T10:17:53.106Z,32.07
2018-05-31T10:18:53.116Z,32.20
2018-05-31T10:19:53.147Z,31.36
2018-05-31T10:20:53.160Z,31.54
2018-05-31T10:21:53.184Z,32.27
2018-05-31T10:22:53.201Z,32.64
2018-05-31T10:23:53.220Z,30.99
2018-05-31T10:24:53.234Z,30.24
2018-05-31T10:25:53.262Z,29.89
2018-05-31T10:26:53.276Z,30.29
2018-05-31T10:27:53.289Z,30.11
2018-05-31T10:28:53.311Z,30.38
2018-05-31T10:29:53.327Z,30.37
2018-05-31T10:30:53.349Z,30.94
2018-05-31T10:31:53.365Z,30.53
2018-05-31T10:32:53.402Z,31.40
2018-05-31T10:33:53.404Z,31.33
2018-05-31T10:34:53.421Z,32.27
2018-05-31T10:35:53.438Z,32.71
2018-05-31T10:36:53.461Z,33.57
2018-05-31T10:37:53.471Z,32.13
2018-05-31T10:38:53.492Z,32.64
2018-05-31T10:39:53.513Z,32.43
2018-05-31T10:40:53.530Z,31.55
2018-05-31T10:41:53.552Z,31.23
2018-05-31T10:42:53.566Z,30.31
2018-05-31T10:43:53.586Z,30.47
2018-05-31T10:44:53.608Z,30.71
2018-05-31T10:45:53.626Z,30.54
2018-05-31T10:46:53.638Z,30.53
2018-05-31T10:47:53.659Z,30.57
2018-05-31T10:48:53.674Z,31.13
2018-05-31T10:49:53.718Z,32.25
2018-05-31T10:50:53.715Z,32.66
2018-05-31T10:51:53.738Z,33.31
2018-05-31T10:52:53.749Z,33.42
2018-05-31T10:53:53.780Z,31.96
2018-05-31T10:54:53.781Z,31.96
2018-05-31T10:55:53.806Z,31.30
2018-05-31T10:56:53.835Z,31.84
2018-05-31T10:57:53.843Z,31.65
2018-05-31T10:58:53.864Z,31.58
2018-05-31T10:59:53.906Z,31.18
2018-05-31T11:00:53.897Z,30.83
2018-05-31T11:01:53.919Z,30.27
2018-05-31T11:02:53.943Z,31.02
2018-05-31T11:03:53.959Z,30.71
2018-05-31T11:04:53.975Z,29.93
2018-05-31T11:05:53.996Z,30.40
2018-05-31T11:06:54.012Z,30.31
2018-05-31T11:07:54.036Z,30.49
2018-05-31T11:08:54.063Z,30.69
2018-05-31T11:09:54.067Z,31.05
2018-05-31T11:10:54.087Z,31.26
2018-05-31T11:11:54.109Z,31.20
2018-05-31T11:12:54.126Z,31.58
2018-05-31T11:13:54.146Z,32.27
2018-05-31T11:14:54.213Z,32.80
2018-05-31T11:15:54.178Z,33.07
2018-05-31T11:16:54.201Z,33.30
2018-05-31T11:17:54.228Z,33.04
2018-05-31T11:18:54.236Z,31.92
2018-05-31T11:19:54.255Z,30.71
2018-05-31T11:20:54.275Z,30.52
2018-05-31T11:21:54.283Z,30.72
2018-05-31T11:22:54.310Z,30.64
2018-05-31T11:23:54.328Z,30.50
2018-05-31T11:24:54.349Z,31.02
2018-05-31T11:25:54.388Z,30.74
2018-05-31T11:26:54.428Z,30.29
2018-05-31T11:27:54.395Z,31.02
2018-05-31T11:28:54.411Z,31.77
2018-05-31T11:29:54.441Z,31.08
2018-05-31T11:30:54.460Z,31.13
2018-05-31T11:31:54.487Z,31.23
2018-05-31T11:32:54.502Z,31.57
2018-05-31T11:33:54.511Z,31.01
2018-05-31T11:34:54.540Z,29.96
2018-05-31T11:35:54.558Z,30.11
2018-05-31T11:36:54.566Z,30.86
2018-05-31T11:37:54.586Z,31.96
2018-05-31T11:38:54.603Z,32.25
2018-05-31T11:39:54.625Z,31.62
2018-05-31T11:40:54.645Z,31.28
2018-05-31T11:41:54.667Z,31.67
2018-05-31T11:42:54.684Z,32.48
2018-05-31T11:43:54.699Z,32.74
2018-05-31T11:44:54.717Z,33.36
2018-05-31T11:45:54.738Z,32.89
2018-05-31T11:46:54.756Z,33.57
2018-05-31T11:47:54.774Z,33.70
2018-05-31T11:48:54.793Z,33.86
2018-05-31T11:49:54.811Z,33.86
2018-05-31T11:50:54.835Z,33.07
2018-05-31T11:51:54.847Z,32.33
2018-05-31T11:52:54.870Z,32.64
2018-05-31T11:53:54.893Z,33.10
2018-05-31T11:54:54.900Z,33.45
2018-05-31T11:55:54.927Z,33.37
2018-05-31T11:56:54.950Z,32.35
2018-05-31T11:57:54.964Z,32.61
2018-05-31T11:58:54.991Z,31.27
2018-05-31T11:59:55.001Z,30.61
2018-05-31T12:00:55.022Z,31.04
2018-05-31T12:01:55.042Z,31.33
2018-05-31T12:02:55.078Z,32.29
2018-05-31T12:03:55.076Z,32.85
2018-05-31T12:04:55.098Z,33.34
2018-05-31T12:05:55.119Z,32.84
2018-05-31T12:06:55.134Z,33.43
2018-05-31T12:07:55.155Z,33.31
2018-05-31T12:08:55.171Z,32.66
2018-05-31T12:09:55.194Z,31.57
2018-05-31T12:10:55.256Z,32.20
2018-05-31T12:11:55.217Z,32.73
2018-05-31T12:12:55.249Z,32.29
2018-05-31T12:13:55.259Z,32.77
2018-05-31T12:14:55.280Z,33.43
2018-05-31T12:15:55.296Z,34.01
2018-05-31T12:16:55.320Z,34.48
2018-05-31T12:17:55.335Z,34.34
2018-05-31T12:18:55.355Z,34.50
2018-05-31T12:19:55.368Z,34.45
2018-05-31T12:20:55.397Z,34.26
2018-05-31T12:21:55.411Z,34.38
2018-05-31T12:22:55.421Z,33.10
2018-05-31T12:23:55.449Z,32.30
2018-05-31T12:24:55.460Z,32.64
2018-05-31T12:25:55.486Z,33.19
2018-05-31T12:26:55.503Z,33.26
2018-05-31T12:27:55.512Z,32.99
2018-05-31T12:28:55.532Z,32.86
2018-05-31T12:29:56.049Z,32.36
2018-05-31T12:30:55.571Z,32.17
2018-05-31T12:31:55.587Z,31.54
2018-05-31T12:32:55.609Z,31.24
2018-05-31T12:33:55.620Z,31.33
2018-05-31T12:34:55.639Z,31.27
2018-05-31T12:35:55.661Z,30.98
2018-05-31T12:36:55.672Z,31.18
2018-05-31T12:37:55.707Z,31.24
2018-05-31T12:38:55.697Z,30.94
2018-05-31T12:39:55.735Z,30.50
2018-05-31T12:40:55.731Z,30.56
2018-05-31T12:41:55.744Z,30.67
2018-05-31T12:42:55.762Z,30.72
2018-05-31T12:43:55.771Z,30.56
2018-05-31T12:44:55.786Z,29.97
2018-05-31T12:45:55.800Z,29.82
2018-05-31T12:46:55.809Z,29.94
2018-05-31T12:47:55.820Z,30.26
2018-05-31T12:48:55.832Z,30.12
2018-05-31T12:49:55.844Z,29.90
2018-05-31T12:50:55.857Z,29.62
2018-05-31T12:51:55.871Z,29.47
2018-05-31T12:52:55.872Z,29.55
2018-05-31T12:53:55.886Z,29.55
2018-05-31T12:54:55.892Z,29.49
2018-05-31T12:55:55.909Z,29.38
2018-05-31T12:56:55.912Z,29.10
2018-05-31T12:57:55.922Z,28.95
2018-05-31T12:58:55.932Z,29.06
2018-05-31T12:59:55.940Z,29.28
2018-05-31T13:00:55.956Z,29.25
2018-05-31T13:01:55.955Z,29.38
2018-05-31T13:02:55.962Z,29.35
2018-05-31T13:03:55.973Z,29.40
2018-05-31T13:04:55.984Z,29.49
2018-05-31T13:05:56.061Z,29.47
2018-05-31T13:06:55.995Z,29.47
2018-05-31T13:07:56.006Z,29.37
2018-05-31T13:08:56.006Z,29.23
2018-05-31T13:09:56.020Z,29.22
2018-05-31T13:10:56.025Z,28.96
2018-05-31T13:11:56.038Z,28.96
2018-05-31T13:12:56.048Z,28.73
2018-05-31T13:13:56.051Z,28.65
2018-05-31T13:14:56.055Z,28.73
2018-05-31T13:15:56.063Z,28.68
2018-05-31T13:16:56.069Z,28.77
2018-05-31T13:17:56.090Z,28.85
2018-05-31T13:18:56.083Z,28.87
2018-05-31T13:19:56.090Z,28.85
2018-05-31T13:20:56.089Z,28.84
2018-05-31T13:21:56.099Z,28.75
2018-05-31T13:22:56.112Z,28.63
2018-05-31T13:23:56.111Z,28.56